sensor_id;sensor_type;location;lat;lon;timestamp;P1;durP1;ratioP1;P2;durP2;ratioP2
62092;SDS011;59819;52.976;6.846;2022-07-15T00:11:59;10.65;;;2.50;;
62092;SDS011;59819;52.976;6.846;2022-07-15T00:31:40;8.43;;;2.40;;
62092;SDS011;59819;52.976;6.846;2022-07-15T00:37:19;11.77;;;2.47;;
62092;SDS011;59819;52.976;6.846;2022-07-15T00:46:54;10.23;;;2.60;;
62092;SDS011;59819;52.976;6.846;2022-07-15T01:11:10;9.75;;;2.70;;
62092;SDS011;59819;52.976;6.846;2022-07-15T01:21:46;6.22;;;2.40;;
62092;SDS011;59819;52.976;6.846;2022-07-15T01:24:12;6.38;;;2.15;;
62092;SDS011;59819;52.976;6.846;2022-07-15T01:26:54;6.10;;;2.22;;
62092;SDS011;59819;52.976;6.846;2022-07-15T01:29:35;8.32;;;2.33;;
62092;SDS011;59819;52.976;6.846;2022-07-15T01:36:01;8.93;;;2.35;;
62092;SDS011;59819;52.976;6.846;2022-07-15T01:41:51;11.45;;;2.70;;
62092;SDS011;59819;52.976;6.846;2022-07-15T01:45:06;15.85;;;3.15;;
62092;SDS011;59819;52.976;6.846;2022-07-15T01:51:01;6.80;;;2.60;;
62092;SDS011;59819;52.976;6.846;2022-07-15T01:53:30;11.30;;;2.70;;
62092;SDS011;59819;52.976;6.846;2022-07-15T01:56:05;9.05;;;2.30;;
62092;SDS011;59819;52.976;6.846;2022-07-15T01:58:56;10.13;;;2.40;;
62092;SDS011;59819;52.976;6.846;2022-07-15T02:01:34;6.18;;;2.08;;
62092;SDS011;59819;52.976;6.846;2022-07-15T02:04:09;8.35;;;2.50;;
62092;SDS011;59819;52.976;6.846;2022-07-15T02:06:59;10.85;;;2.97;;
62092;SDS011;59819;52.976;6.846;2022-07-15T02:10:09;7.57;;;2.28;;
62092;SDS011;59819;52.976;6.846;2022-07-15T02:12:38;5.25;;;2.25;;
62092;SDS011;59819;52.976;6.846;2022-07-15T02:15:10;7.70;;;2.78;;
62092;SDS011;59819;52.976;6.846;2022-07-15T02:18:14;7.95;;;2.60;;
62092;SDS011;59819;52.976;6.846;2022-07-15T02:47:39;11.95;;;2.90;;
62092;SDS011;59819;52.976;6.846;2022-07-15T02:50:05;7.88;;;2.60;;
62092;SDS011;59819;52.976;6.846;2022-07-15T02:52:31;10.70;;;2.70;;
62092;SDS011;59819;52.976;6.846;2022-07-15T02:54:57;12.27;;;2.65;;
62092;SDS011;59819;52.976;6.846;2022-07-15T02:57:23;6.07;;;3.30;;
62092;SDS011;59819;52.976;6.846;2022-07-15T02:59:49;8.27;;;2.60;;
62092;SDS011;59819;52.976;6.846;2022-07-15T03:02:15;6.20;;;2.63;;
62092;SDS011;59819;52.976;6.846;2022-07-15T03:04:41;7.40;;;2.45;;
62092;SDS011;59819;52.976;6.846;2022-07-15T03:07:07;7.03;;;2.30;;
62092;SDS011;59819;52.976;6.846;2022-07-15T03:09:33;7.65;;;2.50;;
62092;SDS011;59819;52.976;6.846;2022-07-15T03:12:00;10.38;;;3.03;;
62092;SDS011;59819;52.976;6.846;2022-07-15T03:14:26;7.63;;;2.97;;
62092;SDS011;59819;52.976;6.846;2022-07-15T03:16:52;6.35;;;2.50;;
62092;SDS011;59819;52.976;6.846;2022-07-15T03:19:18;6.90;;;2.28;;
62092;SDS011;59819;52.976;6.846;2022-07-15T03:21:45;7.57;;;2.30;;
62092;SDS011;59819;52.976;6.846;2022-07-15T03:24:13;8.15;;;2.60;;
62092;SDS011;59819;52.976;6.846;2022-07-15T03:26:39;8.05;;;2.75;;
62092;SDS011;59819;52.976;6.846;2022-07-15T03:29:05;8.90;;;2.40;;
62092;SDS011;59819;52.976;6.846;2022-07-15T03:31:31;11.18;;;2.50;;
62092;SDS011;59819;52.976;6.846;2022-07-15T03:33:57;8.23;;;3.10;;
62092;SDS011;59819;52.976;6.846;2022-07-15T03:36:23;7.85;;;3.17;;
62092;SDS011;59819;52.976;6.846;2022-07-15T03:38:50;8.30;;;2.70;;
62092;SDS011;59819;52.976;6.846;2022-07-15T03:41:20;6.43;;;2.53;;
62092;SDS011;59819;52.976;6.846;2022-07-15T03:43:46;10.05;;;2.80;;
62092;SDS011;59819;52.976;6.846;2022-07-15T03:46:13;10.35;;;3.15;;
62092;SDS011;59819;52.976;6.846;2022-07-15T03:48:42;7.93;;;2.80;;
62092;SDS011;59819;52.976;6.846;2022-07-15T03:51:08;7.55;;;2.75;;
62092;SDS011;59819;52.976;6.846;2022-07-15T03:53:34;10.63;;;2.97;;
62092;SDS011;59819;52.976;6.846;2022-07-15T03:56:00;5.88;;;2.72;;
62092;SDS011;59819;52.976;6.846;2022-07-15T03:58:26;11.43;;;3.00;;
62092;SDS011;59819;52.976;6.846;2022-07-15T04:00:52;7.38;;;2.88;;
62092;SDS011;59819;52.976;6.846;2022-07-15T04:03:18;7.88;;;2.83;;
62092;SDS011;59819;52.976;6.846;2022-07-15T04:05:44;7.35;;;2.67;;
62092;SDS011;59819;52.976;6.846;2022-07-15T04:08:10;8.60;;;2.63;;
62092;SDS011;59819;52.976;6.846;2022-07-15T04:10:36;5.72;;;2.47;;
62092;SDS011;59819;52.976;6.846;2022-07-15T04:13:02;6.68;;;3.08;;
62092;SDS011;59819;52.976;6.846;2022-07-15T04:15:28;8.57;;;2.70;;
62092;SDS011;59819;52.976;6.846;2022-07-15T04:17:55;7.63;;;2.80;;
62092;SDS011;59819;52.976;6.846;2022-07-15T04:20:23;7.82;;;2.65;;
62092;SDS011;59819;52.976;6.846;2022-07-15T04:22:49;8.35;;;2.83;;
62092;SDS011;59819;52.976;6.846;2022-07-15T04:25:16;10.13;;;3.10;;
62092;SDS011;59819;52.976;6.846;2022-07-15T04:27:43;6.75;;;2.95;;
62092;SDS011;59819;52.976;6.846;2022-07-15T04:30:09;12.90;;;3.17;;
62092;SDS011;59819;52.976;6.846;2022-07-15T04:32:35;8.45;;;2.90;;
62092;SDS011;59819;52.976;6.846;2022-07-15T04:35:02;8.13;;;3.03;;
62092;SDS011;59819;52.976;6.846;2022-07-15T04:37:28;8.48;;;3.42;;
62092;SDS011;59819;52.976;6.846;2022-07-15T04:39:55;6.57;;;2.92;;
62092;SDS011;59819;52.976;6.846;2022-07-15T04:42:21;7.95;;;2.70;;
62092;SDS011;59819;52.976;6.846;2022-07-15T04:44:48;8.13;;;2.70;;
62092;SDS011;59819;52.976;6.846;2022-07-15T04:47:15;10.00;;;2.88;;
62092;SDS011;59819;52.976;6.846;2022-07-15T04:49:41;8.55;;;3.25;;
62092;SDS011;59819;52.976;6.846;2022-07-15T04:52:26;7.40;;;2.58;;
62092;SDS011;59819;52.976;6.846;2022-07-15T04:54:55;5.72;;;2.65;;
62092;SDS011;59819;52.976;6.846;2022-07-15T04:57:21;7.13;;;2.75;;
62092;SDS011;59819;52.976;6.846;2022-07-15T04:59:47;8.05;;;2.55;;
62092;SDS011;59819;52.976;6.846;2022-07-15T05:02:13;6.05;;;2.50;;
62092;SDS011;59819;52.976;6.846;2022-07-15T05:04:39;8.70;;;2.80;;
62092;SDS011;59819;52.976;6.846;2022-07-15T05:07:05;8.18;;;2.88;;
62092;SDS011;59819;52.976;6.846;2022-07-15T05:09:32;5.82;;;2.22;;
62092;SDS011;59819;52.976;6.846;2022-07-15T05:11:58;7.25;;;2.60;;
62092;SDS011;59819;52.976;6.846;2022-07-15T05:14:24;6.93;;;2.42;;
62092;SDS011;59819;52.976;6.846;2022-07-15T05:16:50;5.35;;;2.40;;
62092;SDS011;59819;52.976;6.846;2022-07-15T05:19:16;7.82;;;2.33;;
62092;SDS011;59819;52.976;6.846;2022-07-15T05:21:42;5.55;;;2.20;;
62092;SDS011;59819;52.976;6.846;2022-07-15T05:24:08;6.47;;;1.90;;
62092;SDS011;59819;52.976;6.846;2022-07-15T05:26:34;5.50;;;1.90;;
62092;SDS011;59819;52.976;6.846;2022-07-15T05:29:00;5.43;;;2.10;;
62092;SDS011;59819;52.976;6.846;2022-07-15T05:31:26;5.78;;;1.70;;
62092;SDS011;59819;52.976;6.846;2022-07-15T05:33:52;4.53;;;1.60;;
62092;SDS011;59819;52.976;6.846;2022-07-15T05:36:19;10.55;;;1.80;;
62092;SDS011;59819;52.976;6.846;2022-07-15T05:38:46;6.80;;;1.60;;
62092;SDS011;59819;52.976;6.846;2022-07-15T05:41:12;4.13;;;1.60;;
62092;SDS011;59819;52.976;6.846;2022-07-15T05:43:38;4.65;;;1.40;;
62092;SDS011;59819;52.976;6.846;2022-07-15T05:46:05;5.53;;;1.83;;
62092;SDS011;59819;52.976;6.846;2022-07-15T05:48:31;5.65;;;1.70;;
62092;SDS011;59819;52.976;6.846;2022-07-15T05:50:58;6.00;;;1.70;;
62092;SDS011;59819;52.976;6.846;2022-07-15T05:53:24;3.80;;;1.40;;
62092;SDS011;59819;52.976;6.846;2022-07-15T05:55:50;5.85;;;1.65;;
62092;SDS011;59819;52.976;6.846;2022-07-15T05:58:17;3.85;;;1.70;;
62092;SDS011;59819;52.976;6.846;2022-07-15T06:00:43;5.18;;;1.70;;
62092;SDS011;59819;52.976;6.846;2022-07-15T06:03:09;5.38;;;1.83;;
62092;SDS011;59819;52.976;6.846;2022-07-15T06:05:35;5.25;;;1.50;;
62092;SDS011;59819;52.976;6.846;2022-07-15T06:08:01;4.70;;;1.33;;
62092;SDS011;59819;52.976;6.846;2022-07-15T06:10:27;5.47;;;1.27;;
62092;SDS011;59819;52.976;6.846;2022-07-15T06:12:53;6.68;;;1.70;;
62092;SDS011;59819;52.976;6.846;2022-07-15T06:15:20;3.42;;;1.10;;
62092;SDS011;59819;52.976;6.846;2022-07-15T06:17:47;4.28;;;1.38;;
62092;SDS011;59819;52.976;6.846;2022-07-15T06:20:14;5.13;;;1.40;;
62092;SDS011;59819;52.976;6.846;2022-07-15T06:22:41;5.78;;;1.35;;
62092;SDS011;59819;52.976;6.846;2022-07-15T06:25:07;3.33;;;1.20;;
62092;SDS011;59819;52.976;6.846;2022-07-15T06:27:33;2.95;;;1.15;;
62092;SDS011;59819;52.976;6.846;2022-07-15T06:29:59;2.78;;;1.17;;
62092;SDS011;59819;52.976;6.846;2022-07-15T06:32:25;2.95;;;1.10;;
62092;SDS011;59819;52.976;6.846;2022-07-15T06:34:52;4.20;;;1.00;;
62092;SDS011;59819;52.976;6.846;2022-07-15T06:37:18;12.23;;;1.38;;
62092;SDS011;59819;52.976;6.846;2022-07-15T06:39:44;4.93;;;1.40;;
62092;SDS011;59819;52.976;6.846;2022-07-15T06:42:10;3.95;;;1.15;;
62092;SDS011;59819;52.976;6.846;2022-07-15T06:44:36;3.35;;;0.80;;
62092;SDS011;59819;52.976;6.846;2022-07-15T06:47:02;3.08;;;1.10;;
62092;SDS011;59819;52.976;6.846;2022-07-15T06:49:31;5.70;;;1.75;;
62092;SDS011;59819;52.976;6.846;2022-07-15T06:51:57;2.83;;;0.82;;
62092;SDS011;59819;52.976;6.846;2022-07-15T06:54:24;3.10;;;0.90;;
62092;SDS011;59819;52.976;6.846;2022-07-15T06:56:50;4.57;;;0.93;;
62092;SDS011;59819;52.976;6.846;2022-07-15T06:59:16;2.47;;;0.75;;
62092;SDS011;59819;52.976;6.846;2022-07-15T07:01:42;3.35;;;0.70;;
62092;SDS011;59819;52.976;6.846;2022-07-15T07:04:08;2.53;;;0.70;;
62092;SDS011;59819;52.976;6.846;2022-07-15T07:06:34;3.08;;;0.75;;
62092;SDS011;59819;52.976;6.846;2022-07-15T07:09:00;3.65;;;0.70;;
62092;SDS011;59819;52.976;6.846;2022-07-15T07:11:26;2.00;;;0.60;;
62092;SDS011;59819;52.976;6.846;2022-07-15T07:13:53;3.42;;;0.70;;
62092;SDS011;59819;52.976;6.846;2022-07-15T07:16:19;3.08;;;0.80;;
62092;SDS011;59819;52.976;6.846;2022-07-15T07:18:45;5.95;;;0.88;;
62092;SDS011;59819;52.976;6.846;2022-07-15T07:21:12;3.05;;;0.93;;
62092;SDS011;59819;52.976;6.846;2022-07-15T07:23:38;6.95;;;0.82;;
62092;SDS011;59819;52.976;6.846;2022-07-15T07:26:05;2.38;;;0.68;;
62092;SDS011;59819;52.976;6.846;2022-07-15T07:28:31;2.50;;;0.70;;
62092;SDS011;59819;52.976;6.846;2022-07-15T07:30:58;4.55;;;0.88;;
62092;SDS011;59819;52.976;6.846;2022-07-15T07:33:24;4.75;;;0.80;;
62092;SDS011;59819;52.976;6.846;2022-07-15T07:35:50;3.08;;;0.85;;
62092;SDS011;59819;52.976;6.846;2022-07-15T07:38:17;3.33;;;0.70;;
62092;SDS011;59819;52.976;6.846;2022-07-15T07:40:43;3.20;;;0.70;;
62092;SDS011;59819;52.976;6.846;2022-07-15T07:43:09;3.13;;;0.88;;
62092;SDS011;59819;52.976;6.846;2022-07-15T07:45:35;2.05;;;0.70;;
62092;SDS011;59819;52.976;6.846;2022-07-15T07:48:01;2.88;;;0.70;;
62092;SDS011;59819;52.976;6.846;2022-07-15T07:50:27;2.92;;;0.60;;
62092;SDS011;59819;52.976;6.846;2022-07-15T07:52:53;1.83;;;0.70;;
62092;SDS011;59819;52.976;6.846;2022-07-15T07:55:19;3.58;;;0.70;;
62092;SDS011;59819;52.976;6.846;2022-07-15T07:57:49;3.25;;;0.80;;
62092;SDS011;59819;52.976;6.846;2022-07-15T08:00:16;1.40;;;0.50;;
62092;SDS011;59819;52.976;6.846;2022-07-15T08:02:42;2.22;;;0.70;;
62092;SDS011;59819;52.976;6.846;2022-07-15T08:05:08;1.05;;;0.47;;
62092;SDS011;59819;52.976;6.846;2022-07-15T08:07:34;3.47;;;0.85;;
62092;SDS011;59819;52.976;6.846;2022-07-15T08:10:01;3.88;;;0.80;;
62092;SDS011;59819;52.976;6.846;2022-07-15T08:12:28;2.67;;;0.60;;
62092;SDS011;59819;52.976;6.846;2022-07-15T08:14:54;3.88;;;0.60;;
62092;SDS011;59819;52.976;6.846;2022-07-15T08:17:20;1.13;;;0.50;;
62092;SDS011;59819;52.976;6.846;2022-07-15T08:19:46;3.03;;;0.70;;
62092;SDS011;59819;52.976;6.846;2022-07-15T08:22:12;2.42;;;0.55;;
62092;SDS011;59819;52.976;6.846;2022-07-15T08:24:39;1.50;;;0.50;;
62092;SDS011;59819;52.976;6.846;2022-07-15T08:27:05;3.45;;;0.50;;
62092;SDS011;59819;52.976;6.846;2022-07-15T08:29:31;3.88;;;0.70;;
62092;SDS011;59819;52.976;6.846;2022-07-15T08:31:57;2.65;;;0.70;;
62092;SDS011;59819;52.976;6.846;2022-07-15T08:34:23;2.80;;;0.73;;
62092;SDS011;59819;52.976;6.846;2022-07-15T08:36:49;2.40;;;0.50;;
62092;SDS011;59819;52.976;6.846;2022-07-15T08:39:15;2.33;;;0.60;;
62092;SDS011;59819;52.976;6.846;2022-07-15T08:41:41;2.53;;;0.50;;
62092;SDS011;59819;52.976;6.846;2022-07-15T08:44:08;2.13;;;0.55;;
62092;SDS011;59819;52.976;6.846;2022-07-15T08:46:34;1.50;;;0.52;;
62092;SDS011;59819;52.976;6.846;2022-07-15T08:49:07;1.67;;;0.52;;
62092;SDS011;59819;52.976;6.846;2022-07-15T08:51:36;1.13;;;0.70;;
62092;SDS011;59819;52.976;6.846;2022-07-15T08:54:03;1.08;;;0.50;;
62092;SDS011;59819;52.976;6.846;2022-07-15T08:56:31;4.85;;;1.00;;
62092;SDS011;59819;52.976;6.846;2022-07-15T08:58:57;1.25;;;0.50;;
62092;SDS011;59819;52.976;6.846;2022-07-15T09:01:23;1.15;;;0.50;;
62092;SDS011;59819;52.976;6.846;2022-07-15T09:03:49;2.53;;;0.52;;
62092;SDS011;59819;52.976;6.846;2022-07-15T09:06:49;2.03;;;0.50;;
62092;SDS011;59819;52.976;6.846;2022-07-15T09:09:24;1.48;;;0.60;;
62092;SDS011;59819;52.976;6.846;2022-07-15T09:11:58;1.00;;;0.40;;
62092;SDS011;59819;52.976;6.846;2022-07-15T09:14:28;0.63;;;0.38;;
62092;SDS011;59819;52.976;6.846;2022-07-15T09:17:04;2.17;;;0.52;;
62092;SDS011;59819;52.976;6.846;2022-07-15T09:19:54;1.95;;;0.60;;
62092;SDS011;59819;52.976;6.846;2022-07-15T09:22:16;2.88;;;0.70;;
62092;SDS011;59819;52.976;6.846;2022-07-15T09:24:43;2.60;;;0.60;;
62092;SDS011;59819;52.976;6.846;2022-07-15T09:27:28;4.88;;;0.90;;
62092;SDS011;59819;52.976;6.846;2022-07-15T09:29:55;3.25;;;0.75;;
62092;SDS011;59819;52.976;6.846;2022-07-15T09:32:39;3.47;;;1.17;;
62092;SDS011;59819;52.976;6.846;2022-07-15T09:35:25;1.88;;;0.73;;
62092;SDS011;59819;52.976;6.846;2022-07-15T09:38:12;2.38;;;0.70;;
62092;SDS011;59819;52.976;6.846;2022-07-15T09:40:47;4.13;;;0.88;;
62092;SDS011;59819;52.976;6.846;2022-07-15T09:43:14;1.30;;;0.85;;
62092;SDS011;59819;52.976;6.846;2022-07-15T09:45:40;3.05;;;0.70;;
62092;SDS011;59819;52.976;6.846;2022-07-15T09:50:36;5.25;;;0.80;;
62092;SDS011;59819;52.976;6.846;2022-07-15T09:53:03;3.53;;;0.80;;
62092;SDS011;59819;52.976;6.846;2022-07-15T09:55:29;2.20;;;0.75;;
62092;SDS011;59819;52.976;6.846;2022-07-15T09:57:56;2.58;;;0.80;;
62092;SDS011;59819;52.976;6.846;2022-07-15T10:00:24;2.20;;;0.80;;
62092;SDS011;59819;52.976;6.846;2022-07-15T10:02:50;2.65;;;0.70;;
62092;SDS011;59819;52.976;6.846;2022-07-15T10:05:17;1.30;;;0.63;;
62092;SDS011;59819;52.976;6.846;2022-07-15T10:07:43;1.58;;;0.63;;
62092;SDS011;59819;52.976;6.846;2022-07-15T10:10:09;2.50;;;0.50;;
62092;SDS011;59819;52.976;6.846;2022-07-15T10:13:14;1.63;;;0.55;;
62092;SDS011;59819;52.976;6.846;2022-07-15T10:18:37;1.92;;;0.65;;
62092;SDS011;59819;52.976;6.846;2022-07-15T10:29:03;1.50;;;0.50;;
62092;SDS011;59819;52.976;6.846;2022-07-15T10:31:30;2.63;;;0.68;;
62092;SDS011;59819;52.976;6.846;2022-07-15T10:39:04;0.43;;;0.35;;
62092;SDS011;59819;52.976;6.846;2022-07-15T10:44:12;1.67;;;0.70;;
62092;SDS011;59819;52.976;6.846;2022-07-15T10:46:38;3.85;;;0.90;;
62092;SDS011;59819;52.976;6.846;2022-07-15T10:56:29;2.58;;;0.82;;
62092;SDS011;59819;52.976;6.846;2022-07-15T10:59:08;2.05;;;0.80;;
62092;SDS011;59819;52.976;6.846;2022-07-15T11:01:35;1.38;;;0.60;;
62092;SDS011;59819;52.976;6.846;2022-07-15T11:12:23;0.57;;;0.50;;
62092;SDS011;59819;52.976;6.846;2022-07-15T11:14:50;1.42;;;0.90;;
62092;SDS011;59819;52.976;6.846;2022-07-15T11:19:54;0.90;;;0.40;;
62092;SDS011;59819;52.976;6.846;2022-07-15T11:22:21;1.75;;;0.70;;
62092;SDS011;59819;52.976;6.846;2022-07-15T11:24:47;1.45;;;0.68;;
62092;SDS011;59819;52.976;6.846;2022-07-15T11:27:13;0.95;;;0.60;;
62092;SDS011;59819;52.976;6.846;2022-07-15T11:29:41;1.88;;;0.80;;
62092;SDS011;59819;52.976;6.846;2022-07-15T11:32:07;1.90;;;0.60;;
62092;SDS011;59819;52.976;6.846;2022-07-15T11:34:38;1.95;;;0.60;;
62092;SDS011;59819;52.976;6.846;2022-07-15T11:37:05;1.13;;;0.50;;
62092;SDS011;59819;52.976;6.846;2022-07-15T11:39:31;1.63;;;0.60;;
62092;SDS011;59819;52.976;6.846;2022-07-15T11:41:57;7.60;;;0.80;;
62092;SDS011;59819;52.976;6.846;2022-07-15T11:44:46;2.08;;;0.60;;
62092;SDS011;59819;52.976;6.846;2022-07-15T11:47:13;3.53;;;0.77;;
62092;SDS011;59819;52.976;6.846;2022-07-15T11:49:39;2.15;;;0.60;;
62092;SDS011;59819;52.976;6.846;2022-07-15T11:52:07;1.55;;;0.65;;
62092;SDS011;59819;52.976;6.846;2022-07-15T11:54:37;1.70;;;0.60;;
62092;SDS011;59819;52.976;6.846;2022-07-15T11:57:04;1.60;;;0.60;;
62092;SDS011;59819;52.976;6.846;2022-07-15T11:59:34;0.75;;;0.50;;
62092;SDS011;59819;52.976;6.846;2022-07-15T12:02:04;1.95;;;0.60;;
62092;SDS011;59819;52.976;6.846;2022-07-15T12:04:30;1.10;;;0.63;;
62092;SDS011;59819;52.976;6.846;2022-07-15T12:06:56;1.63;;;0.70;;
62092;SDS011;59819;52.976;6.846;2022-07-15T12:09:23;2.03;;;0.60;;
62092;SDS011;59819;52.976;6.846;2022-07-15T12:11:50;1.23;;;0.70;;
62092;SDS011;59819;52.976;6.846;2022-07-15T12:14:20;0.88;;;0.60;;
62092;SDS011;59819;52.976;6.846;2022-07-15T12:16:48;0.77;;;0.60;;
62092;SDS011;59819;52.976;6.846;2022-07-15T12:19:15;1.50;;;0.50;;
62092;SDS011;59819;52.976;6.846;2022-07-15T12:21:42;2.58;;;0.60;;
62092;SDS011;59819;52.976;6.846;2022-07-15T12:24:09;0.93;;;0.50;;
62092;SDS011;59819;52.976;6.846;2022-07-15T12:26:55;2.25;;;0.90;;
62092;SDS011;59819;52.976;6.846;2022-07-15T12:29:22;2.03;;;0.50;;
62092;SDS011;59819;52.976;6.846;2022-07-15T12:31:55;4.85;;;0.70;;
62092;SDS011;59819;52.976;6.846;2022-07-15T12:34:22;1.05;;;0.50;;
62092;SDS011;59819;52.976;6.846;2022-07-15T12:36:55;1.33;;;0.50;;
62092;SDS011;59819;52.976;6.846;2022-07-15T12:39:22;2.17;;;0.50;;
62092;SDS011;59819;52.976;6.846;2022-07-15T12:41:58;0.75;;;0.40;;
62092;SDS011;59819;52.976;6.846;2022-07-15T12:44:25;0.95;;;0.40;;
62092;SDS011;59819;52.976;6.846;2022-07-15T12:54:38;1.27;;;0.50;;
62092;SDS011;59819;52.976;6.846;2022-07-15T12:57:04;1.67;;;0.57;;
62092;SDS011;59819;52.976;6.846;2022-07-15T12:59:30;1.52;;;0.50;;
62092;SDS011;59819;52.976;6.846;2022-07-15T13:02:02;1.10;;;0.40;;
62092;SDS011;59819;52.976;6.846;2022-07-15T13:04:28;1.52;;;0.60;;
62092;SDS011;59819;52.976;6.846;2022-07-15T13:06:55;0.93;;;0.50;;
62092;SDS011;59819;52.976;6.846;2022-07-15T13:09:21;1.88;;;0.55;;
62092;SDS011;59819;52.976;6.846;2022-07-15T13:11:56;1.73;;;0.60;;
62092;SDS011;59819;52.976;6.846;2022-07-15T13:14:22;1.25;;;0.57;;
62092;SDS011;59819;52.976;6.846;2022-07-15T13:16:48;1.63;;;0.60;;
62092;SDS011;59819;52.976;6.846;2022-07-15T13:19:14;0.95;;;0.52;;
62092;SDS011;59819;52.976;6.846;2022-07-15T13:21:40;3.35;;;0.60;;
62092;SDS011;59819;52.976;6.846;2022-07-15T13:24:06;2.05;;;0.60;;
62092;SDS011;59819;52.976;6.846;2022-07-15T13:26:32;1.50;;;0.70;;
62092;SDS011;59819;52.976;6.846;2022-07-15T13:28:58;2.60;;;0.60;;
62092;SDS011;59819;52.976;6.846;2022-07-15T13:31:24;1.65;;;0.70;;
62092;SDS011;59819;52.976;6.846;2022-07-15T13:33:50;0.70;;;0.50;;
62092;SDS011;59819;52.976;6.846;2022-07-15T13:36:16;0.90;;;0.60;;
62092;SDS011;59819;52.976;6.846;2022-07-15T13:38:42;1.17;;;0.60;;
62092;SDS011;59819;52.976;6.846;2022-07-15T13:41:11;1.65;;;0.70;;
62092;SDS011;59819;52.976;6.846;2022-07-15T13:43:37;0.60;;;0.50;;
62092;SDS011;59819;52.976;6.846;2022-07-15T13:46:03;1.73;;;0.63;;
62092;SDS011;59819;52.976;6.846;2022-07-15T13:48:32;2.72;;;0.70;;
62092;SDS011;59819;52.976;6.846;2022-07-15T13:50:58;2.05;;;0.70;;
62092;SDS011;59819;52.976;6.846;2022-07-15T13:53:43;2.50;;;0.80;;
62092;SDS011;59819;52.976;6.846;2022-07-15T13:56:10;3.70;;;0.70;;
62092;SDS011;59819;52.976;6.846;2022-07-15T13:58:36;3.20;;;0.80;;
62092;SDS011;59819;52.976;6.846;2022-07-15T14:01:02;1.63;;;0.90;;
62092;SDS011;59819;52.976;6.846;2022-07-15T14:03:28;1.70;;;0.80;;
62092;SDS011;59819;52.976;6.846;2022-07-15T14:05:54;1.15;;;0.60;;
62092;SDS011;59819;52.976;6.846;2022-07-15T14:08:20;1.10;;;0.80;;
62092;SDS011;59819;52.976;6.846;2022-07-15T14:10:47;1.60;;;0.90;;
62092;SDS011;59819;52.976;6.846;2022-07-15T14:13:13;1.40;;;0.80;;
62092;SDS011;59819;52.976;6.846;2022-07-15T14:15:39;2.42;;;0.70;;
62092;SDS011;59819;52.976;6.846;2022-07-15T14:18:05;3.60;;;1.05;;
62092;SDS011;59819;52.976;6.846;2022-07-15T14:20:31;1.38;;;0.80;;
62092;SDS011;59819;52.976;6.846;2022-07-15T14:22:58;2.10;;;0.90;;
62092;SDS011;59819;52.976;6.846;2022-07-15T14:25:24;1.92;;;0.90;;
62092;SDS011;59819;52.976;6.846;2022-07-15T14:27:50;1.48;;;0.80;;
62092;SDS011;59819;52.976;6.846;2022-07-15T14:30:18;2.33;;;1.08;;
62092;SDS011;59819;52.976;6.846;2022-07-15T14:32:47;4.15;;;1.00;;
62092;SDS011;59819;52.976;6.846;2022-07-15T14:35:13;2.50;;;1.10;;
62092;SDS011;59819;52.976;6.846;2022-07-15T14:37:40;1.33;;;0.80;;
62092;SDS011;59819;52.976;6.846;2022-07-15T14:40:06;1.90;;;0.82;;
62092;SDS011;59819;52.976;6.846;2022-07-15T14:42:35;1.67;;;1.00;;
62092;SDS011;59819;52.976;6.846;2022-07-15T14:45:04;2.88;;;1.20;;
62092;SDS011;59819;52.976;6.846;2022-07-15T14:47:30;1.25;;;1.00;;
62092;SDS011;59819;52.976;6.846;2022-07-15T14:49:56;1.20;;;0.82;;
62092;SDS011;59819;52.976;6.846;2022-07-15T14:52:22;1.20;;;0.90;;
62092;SDS011;59819;52.976;6.846;2022-07-15T14:54:48;2.38;;;1.05;;
62092;SDS011;59819;52.976;6.846;2022-07-15T14:57:14;1.63;;;1.05;;
62092;SDS011;59819;52.976;6.846;2022-07-15T14:59:42;1.92;;;1.20;;
62092;SDS011;59819;52.976;6.846;2022-07-15T15:02:08;2.13;;;1.10;;
62092;SDS011;59819;52.976;6.846;2022-07-15T15:04:35;2.83;;;1.00;;
62092;SDS011;59819;52.976;6.846;2022-07-15T15:07:01;1.90;;;1.10;;
62092;SDS011;59819;52.976;6.846;2022-07-15T15:09:28;2.35;;;1.38;;
62092;SDS011;59819;52.976;6.846;2022-07-15T15:11:54;2.05;;;1.25;;
62092;SDS011;59819;52.976;6.846;2022-07-15T15:14:29;1.85;;;1.17;;
62092;SDS011;59819;52.976;6.846;2022-07-15T15:16:55;2.58;;;1.25;;
62092;SDS011;59819;52.976;6.846;2022-07-15T15:19:21;2.13;;;1.30;;
62092;SDS011;59819;52.976;6.846;2022-07-15T15:21:47;2.10;;;1.20;;
62092;SDS011;59819;52.976;6.846;2022-07-15T15:24:13;2.20;;;1.02;;
62092;SDS011;59819;52.976;6.846;2022-07-15T15:26:39;1.90;;;1.38;;
62092;SDS011;59819;52.976;6.846;2022-07-15T15:29:05;2.92;;;1.30;;
62092;SDS011;59819;52.976;6.846;2022-07-15T15:31:31;2.45;;;1.48;;
62092;SDS011;59819;52.976;6.846;2022-07-15T15:33:57;4.10;;;1.50;;
62092;SDS011;59819;52.976;6.846;2022-07-15T15:36:24;3.13;;;1.40;;
62092;SDS011;59819;52.976;6.846;2022-07-15T15:38:50;2.08;;;1.20;;
62092;SDS011;59819;52.976;6.846;2022-07-15T15:41:16;4.03;;;1.70;;
62092;SDS011;59819;52.976;6.846;2022-07-15T15:43:42;2.97;;;1.45;;
62092;SDS011;59819;52.976;6.846;2022-07-15T15:46:08;2.03;;;1.23;;
62092;SDS011;59819;52.976;6.846;2022-07-15T15:48:34;2.90;;;1.60;;
62092;SDS011;59819;52.976;6.846;2022-07-15T15:51:00;2.45;;;1.70;;
62092;SDS011;59819;52.976;6.846;2022-07-15T15:53:26;2.65;;;1.70;;
62092;SDS011;59819;52.976;6.846;2022-07-15T15:55:52;4.90;;;1.70;;
62092;SDS011;59819;52.976;6.846;2022-07-15T15:58:18;3.58;;;1.65;;
62092;SDS011;59819;52.976;6.846;2022-07-15T16:00:47;2.30;;;1.52;;
62092;SDS011;59819;52.976;6.846;2022-07-15T16:03:13;2.95;;;1.58;;
62092;SDS011;59819;52.976;6.846;2022-07-15T16:05:39;3.50;;;1.90;;
62092;SDS011;59819;52.976;6.846;2022-07-15T16:08:08;2.78;;;1.58;;
62092;SDS011;59819;52.976;6.846;2022-07-15T16:10:34;2.15;;;1.50;;
62092;SDS011;59819;52.976;6.846;2022-07-15T16:13:00;3.08;;;1.60;;
62092;SDS011;59819;52.976;6.846;2022-07-15T16:15:26;2.70;;;1.52;;
62092;SDS011;59819;52.976;6.846;2022-07-15T16:17:55;2.38;;;1.40;;
62092;SDS011;59819;52.976;6.846;2022-07-15T16:20:21;17.60;;;2.17;;
62092;SDS011;59819;52.976;6.846;2022-07-15T16:22:49;2.58;;;1.50;;
62092;SDS011;59819;52.976;6.846;2022-07-15T16:25:22;3.03;;;1.70;;
62092;SDS011;59819;52.976;6.846;2022-07-15T16:27:53;3.05;;;1.58;;
62092;SDS011;59819;52.976;6.846;2022-07-15T16:30:20;2.88;;;1.67;;
62092;SDS011;59819;52.976;6.846;2022-07-15T16:32:48;3.45;;;1.65;;
62092;SDS011;59819;52.976;6.846;2022-07-15T16:35:14;2.65;;;1.80;;
62092;SDS011;59819;52.976;6.846;2022-07-15T16:37:40;4.30;;;1.80;;
62092;SDS011;59819;52.976;6.846;2022-07-15T16:40:06;3.10;;;1.63;;
62092;SDS011;59819;52.976;6.846;2022-07-15T16:42:35;4.28;;;2.00;;
62092;SDS011;59819;52.976;6.846;2022-07-15T16:45:02;1.98;;;1.55;;
62092;SDS011;59819;52.976;6.846;2022-07-15T16:47:28;3.80;;;1.80;;
62092;SDS011;59819;52.976;6.846;2022-07-15T16:49:54;3.17;;;1.70;;
62092;SDS011;59819;52.976;6.846;2022-07-15T16:52:20;3.40;;;1.85;;
62092;SDS011;59819;52.976;6.846;2022-07-15T16:54:46;2.70;;;1.67;;
62092;SDS011;59819;52.976;6.846;2022-07-15T16:57:13;3.33;;;1.73;;
62092;SDS011;59819;52.976;6.846;2022-07-15T16:59:39;3.00;;;1.90;;
62092;SDS011;59819;52.976;6.846;2022-07-15T17:02:08;2.13;;;1.60;;
62092;SDS011;59819;52.976;6.846;2022-07-15T17:04:34;2.70;;;1.65;;
62092;SDS011;59819;52.976;6.846;2022-07-15T17:07:00;2.60;;;1.70;;
62092;SDS011;59819;52.976;6.846;2022-07-15T17:09:29;2.95;;;1.70;;
62092;SDS011;59819;52.976;6.846;2022-07-15T17:11:55;3.55;;;1.90;;
62092;SDS011;59819;52.976;6.846;2022-07-15T17:14:23;3.80;;;1.75;;
62092;SDS011;59819;52.976;6.846;2022-07-15T17:16:49;3.47;;;1.52;;
62092;SDS011;59819;52.976;6.846;2022-07-15T17:19:27;3.65;;;1.48;;
62092;SDS011;59819;52.976;6.846;2022-07-15T17:21:53;2.20;;;1.70;;
62092;SDS011;59819;52.976;6.846;2022-07-15T17:24:22;2.20;;;1.45;;
62092;SDS011;59819;52.976;6.846;2022-07-15T17:26:50;3.30;;;1.50;;